Time;durP1;ratioP1;P1;durP2;ratioP2;P2;SDS_P1;SDS_P2;PMS_P1;PMS_P2;Temp;Humidity;BMP_temperature;BMP_pressure;BME280_temperature;BME280_humidity;BME280_pressure;Samples;Min_cycle;Max_cycle;Signal;HPM_P1;HPM_P2
2022/07/16 00:02:43;;;;;;;2.35;1.77;;;19.40;55.80;;;;;;5008677;28;20041;-85
2022/07/16 00:05:09;;;;;;;4.20;1.75;;;19.30;55.80;;;;;;4999838;28;20676;-86
2022/07/16 00:07:35;;;;;;;5.65;2.00;;;19.30;55.80;;;;;;5006811;28;20743;-86
2022/07/16 00:10:02;;;;;;;5.40;1.90;;;19.30;55.90;;;;;;4995356;28;20027;-86
2022/07/16 00:12:27;;;;;;;3.08;1.52;;;19.30;56.00;;;;;;5007654;28;20072;-84
2022/07/16 00:14:53;;;;;;;3.40;1.65;;;19.20;56.00;;;;;;5007344;28;20026;-85
2022/07/16 00:17:19;;;;;;;2.10;1.70;;;19.20;55.80;;;;;;5010753;28;20022;-86
2022/07/16 00:19:45;;;;;;;3.25;1.80;;;19.20;56.00;;;;;;5010178;28;20106;-84
2022/07/16 00:22:11;;;;;;;2.72;1.65;;;19.20;56.00;;;;;;4993832;28;20067;-85
2022/07/16 00:24:37;;;;;;;6.28;2.15;;;19.20;56.10;;;;;;5010960;28;20022;-83
2022/07/16 00:27:03;;;;;;;5.43;2.25;;;19.20;56.10;;;;;;4998174;28;20006;-82
2022/07/16 00:29:29;;;;;;;2.00;1.52;;;19.20;56.20;;;;;;5001136;28;20026;-85
2022/07/16 00:31:55;;;;;;;3.75;1.75;;;19.20;56.20;;;;;;5015600;28;20041;-86
2022/07/16 00:34:21;;;;;;;2.90;1.60;;;19.20;56.20;;;;;;4989831;28;20019;-85
2022/07/16 00:36:48;;;;;;;3.22;1.70;;;19.20;56.20;;;;;;5005792;28;20026;-85
2022/07/16 00:39:15;;;;;;;3.63;1.73;;;19.20;56.10;;;;;;4990405;28;20022;-86
2022/07/16 00:41:42;;;;;;;1.77;1.55;;;19.20;56.20;;;;;;5007614;28;20054;-86
2022/07/16 00:44:11;;;;;;;2.53;1.42;;;19.10;56.20;;;;;;5005484;28;20022;-85
2022/07/16 00:46:38;;;;;;;2.58;1.65;;;19.10;56.20;;;;;;5005964;28;20082;-86
2022/07/16 00:49:04;;;;;;;2.33;1.55;;;19.10;56.20;;;;;;5005266;28;20049;-84
2022/07/16 00:51:31;;;;;;;2.30;1.65;;;19.10;56.30;;;;;;5009450;28;20050;-86
2022/07/16 00:53:58;;;;;;;2.20;1.42;;;19.00;56.40;;;;;;5009055;28;20023;-84
2022/07/16 00:56:24;;;;;;;2.08;1.45;;;19.00;56.50;;;;;;5006516;28;20085;-86
2022/07/16 00:58:50;;;;;;;3.05;1.30;;;19.00;56.60;;;;;;5004978;28;20030;-84
2022/07/16 01:01:17;;;;;;;2.53;1.70;;;19.00;56.70;;;;;;4987033;28;20018;-86
2022/07/16 01:03:43;;;;;;;2.65;1.42;;;18.90;56.90;;;;;;5003730;28;20617;-84
2022/07/16 01:06:10;;;;;;;5.97;1.70;;;18.90;57.10;;;;;;5004467;28;20026;-83
2022/07/16 01:08:39;;;;;;;2.28;1.80;;;18.90;57.20;;;;;;4990513;28;20026;-85
2022/07/16 01:11:06;;;;;;;3.17;1.73;;;18.90;57.20;;;;;;5010733;28;20037;-83
2022/07/16 01:13:33;;;;;;;6.05;2.22;;;18.90;57.10;;;;;;5008377;28;20090;-83
2022/07/16 01:15:59;;;;;;;4.00;2.65;;;18.90;57.20;;;;;;4999900;28;20049;-84
2022/07/16 01:18:25;;;;;;;4.78;3.13;;;18.80;57.30;;;;;;5013178;28;20094;-85
2022/07/16 01:20:51;;;;;;;5.43;3.35;;;18.80;57.40;;;;;;5008841;28;20206;-86
2022/07/16 01:23:21;;;;;;;8.88;3.70;;;18.80;57.40;;;;;;5037964;22;20040;-84
2022/07/16 01:25:48;;;;;;;6.53;2.95;;;18.80;57.50;;;;;;4997752;28;20018;-83
2022/07/16 01:28:14;;;;;;;5.88;2.90;;;18.80;57.60;;;;;;5012599;28;20026;-83
2022/07/16 01:30:41;;;;;;;5.60;2.72;;;18.70;57.70;;;;;;5029785;28;20037;-83
2022/07/16 01:33:23;;;;;;;4.15;2.10;;;18.70;57.80;;;;;;5005997;28;20026;-84
2022/07/16 01:35:51;;;;;;;4.50;2.10;;;18.70;58.00;;;;;;5024645;28;20087;-83
2022/07/16 01:38:17;;;;;;;5.28;1.80;;;18.70;58.00;;;;;;5016370;28;20075;-83
2022/07/16 01:40:43;;;;;;;2.20;1.65;;;18.60;58.10;;;;;;5012502;28;20145;-83
2022/07/16 01:43:17;;;;;;;3.47;2.00;;;18.70;58.20;;;;;;4999962;28;20034;-83
2022/07/16 01:45:44;;;;;;;3.97;1.75;;;18.70;58.10;;;;;;5002190;28;20042;-83
2022/07/16 01:48:11;;;;;;;3.30;1.65;;;18.70;58.10;;;;;;5014679;28;20022;-82
2022/07/16 01:50:36;;;;;;;2.92;1.65;;;18.70;58.10;;;;;;5001924;28;20559;-82
2022/07/16 01:53:03;;;;;;;2.75;1.80;;;18.70;58.30;;;;;;5018586;28;20112;-82
2022/07/16 01:55:29;;;;;;;2.97;1.90;;;18.70;58.50;;;;;;4999422;28;20026;-82
2022/07/16 01:57:55;;;;;;;4.10;2.17;;;18.70;58.50;;;;;;5017923;28;20033;-82
2022/07/16 02:00:21;;;;;;;2.55;1.88;;;18.60;58.60;;;;;;5020938;28;20033;-83
2022/07/16 02:02:47;;;;;;;2.10;1.60;;;18.60;59.00;;;;;;5018196;28;20339;-83
2022/07/16 02:05:12;;;;;;;4.85;2.00;;;18.50;59.20;;;;;;5007689;28;20035;-83
2022/07/16 02:07:39;;;;;;;4.50;2.00;;;18.40;59.50;;;;;;4998826;28;20352;-84
2022/07/16 02:10:05;;;;;;;3.28;1.52;;;18.30;59.60;;;;;;4998758;28;20129;-83
2022/07/16 02:12:31;;;;;;;7.55;1.77;;;18.20;59.70;;;;;;5006852;28;20038;-84
2022/07/16 02:14:57;;;;;;;4.70;1.95;;;18.20;59.90;;;;;;5020784;28;20057;-84
2022/07/16 02:17:23;;;;;;;5.32;2.20;;;18.10;60.10;;;;;;5021395;28;20045;-83
2022/07/16 02:19:49;;;;;;;3.97;2.00;;;18.10;60.30;;;;;;5018632;28;20032;-84
2022/07/16 02:22:15;;;;;;;3.58;1.70;;;18.00;60.40;;;;;;5019254;28;20033;-83
2022/07/16 02:24:41;;;;;;;2.20;1.50;;;18.00;60.60;;;;;;5000137;28;20061;-83
2022/07/16 02:27:07;;;;;;;3.90;1.90;;;18.00;60.70;;;;;;5000867;28;20048;-83
2022/07/16 02:29:32;;;;;;;3.25;2.20;;;18.00;61.50;;;;;;5018236;28;20026;-83
2022/07/16 02:31:58;;;;;;;4.07;1.73;;;17.90;60.80;;;;;;5001311;28;20092;-83
2022/07/16 02:34:24;;;;;;;3.13;1.55;;;17.90;61.00;;;;;;4998295;28;20364;-83
2022/07/16 02:36:50;;;;;;;2.50;1.52;;;17.80;61.10;;;;;;5000136;28;20042;-83
2022/07/16 02:39:16;;;;;;;5.30;2.00;;;17.80;61.30;;;;;;4994064;28;20031;-83
2022/07/16 02:41:42;;;;;;;2.83;1.70;;;17.70;61.30;;;;;;5010864;28;20057;-82
2022/07/16 02:44:07;;;;;;;3.45;1.92;;;17.80;61.40;;;;;;4993724;28;20029;-82
2022/07/16 02:46:33;;;;;;;2.35;1.80;;;17.70;61.50;;;;;;5024498;28;20086;-83
2022/07/16 02:48:59;;;;;;;1.42;1.25;;;17.70;61.60;;;;;;5034016;28;20038;-83
2022/07/16 02:51:25;;;;;;;1.60;1.50;;;17.70;61.70;;;;;;5038484;28;20262;-83
2022/07/16 02:53:51;;;;;;;2.42;1.35;;;17.60;61.80;;;;;;5020872;28;20033;-83
2022/07/16 02:56:17;;;;;;;2.22;1.85;;;17.60;61.90;;;;;;5035924;28;20082;-83
2022/07/16 02:58:43;;;;;;;2.20;1.85;;;17.50;61.90;;;;;;5018764;28;20026;-83
2022/07/16 03:01:09;;;;;;;2.45;1.48;;;17.50;62.00;;;;;;5018805;28;20049;-83
2022/07/16 03:03:34;;;;;;;2.83;1.48;;;17.50;62.10;;;;;;5030385;28;20022;-83
2022/07/16 03:06:00;;;;;;;2.00;1.42;;;17.50;62.20;;;;;;5038347;28;20050;-82
2022/07/16 03:08:26;;;;;;;3.05;1.63;;;17.50;62.20;;;;;;5038132;28;20030;-83
2022/07/16 03:10:52;;;;;;;1.98;1.42;;;17.50;62.20;;;;;;5020382;28;20037;-82
2022/07/16 03:13:17;;;;;;;3.67;1.52;;;17.50;62.10;;;;;;5032310;28;20121;-83
2022/07/16 03:15:43;;;;;;;1.67;1.35;;;17.50;62.10;;;;;;5004729;28;20030;-83
2022/07/16 03:18:09;;;;;;;1.63;1.33;;;17.50;62.10;;;;;;5002927;28;20030;-83
2022/07/16 03:20:34;;;;;;;1.88;1.42;;;17.40;62.00;;;;;;4980738;28;20034;-82
2022/07/16 03:23:00;;;;;;;3.95;2.25;;;17.50;62.20;;;;;;5001537;28;20060;-82
2022/07/16 03:25:26;;;;;;;2.40;1.75;;;17.50;62.30;;;;;;5017020;28;20022;-83
2022/07/16 03:27:52;;;;;;;2.83;1.83;;;17.50;62.50;;;;;;5020091;28;20031;-81
2022/07/16 03:30:17;;;;;;;2.00;1.67;;;17.40;62.80;;;;;;5019207;28;20367;-82
2022/07/16 03:32:44;;;;;;;2.33;1.90;;;17.40;62.90;;;;;;5020304;28;20049;-82
2022/07/16 03:35:11;;;;;;;2.03;1.90;;;17.40;63.00;;;;;;5007184;28;20060;-83
2022/07/16 03:40:22;;;;;;;3.25;1.42;;;17.40;63.10;;;;;;5025333;28;20109;-83
2022/07/16 03:42:47;;;;;;;4.15;1.60;;;17.40;63.10;;;;;;5020377;28;20050;-83
2022/07/16 03:45:13;;;;;;;1.40;1.30;;;17.40;62.70;;;;;;5008478;28;20073;-83
2022/07/16 03:47:39;;;;;;;2.70;1.30;;;17.40;62.60;;;;;;5001059;28;20490;-85
2022/07/16 03:50:05;;;;;;;1.60;1.38;;;17.50;62.60;;;;;;5003127;28;20026;-84
2022/07/16 03:52:31;;;;;;;1.05;1.02;;;17.50;62.50;;;;;;5004733;28;20057;-84
2022/07/16 03:54:57;;;;;;;1.88;1.60;;;17.50;62.50;;;;;;5016983;28;20022;-84
2022/07/16 03:57:22;;;;;;;1.60;1.38;;;17.60;62.40;;;;;;5019255;28;20079;-84
2022/07/16 03:59:48;;;;;;;2.20;1.17;;;17.60;62.30;;;;;;5019668;28;20073;-82
2022/07/16 04:02:13;;;;;;;3.13;1.90;;;17.60;62.40;;;;;;5025137;28;20078;-83
2022/07/16 04:04:39;;;;;;;3.85;1.60;;;17.60;61.70;;;;;;5018042;28;20029;-84
2022/07/16 04:07:05;;;;;;;2.22;1.65;;;17.60;62.10;;;;;;5000654;28;20054;-84
2022/07/16 04:09:30;;;;;;;1.52;1.38;;;17.60;62.20;;;;;;4998999;28;20026;-84
2022/07/16 04:11:56;;;;;;;1.50;1.40;;;17.60;62.10;;;;;;4982508;28;20022;-84
2022/07/16 04:14:22;;;;;;;1.70;1.25;;;17.70;62.20;;;;;;4999236;28;20056;-84
2022/07/16 04:16:53;;;;;;;1.52;1.38;;;17.70;62.20;;;;;;5003423;28;20030;-84
2022/07/16 04:19:19;;;;;;;1.38;1.27;;;17.80;62.10;;;;;;5001271;28;20052;-84
2022/07/16 04:21:44;;;;;;;1.55;1.40;;;17.80;61.90;;;;;;5018807;28;20026;-84
2022/07/16 04:24:10;;;;;;;2.28;1.60;;;17.80;62.00;;;;;;5021615;28;20072;-84
2022/07/16 04:26:36;;;;;;;4.38;2.15;;;17.80;61.80;;;;;;5023367;28;20029;-84
2022/07/16 04:29:02;;;;;;;1.83;1.30;;;17.80;62.00;;;;;;5014008;28;20022;-84
2022/07/16 04:31:27;;;;;;;2.20;1.58;;;17.80;62.40;;;;;;4989688;28;20042;-84
2022/07/16 04:33:53;;;;;;;3.40;1.70;;;17.80;62.50;;;;;;4982185;28;20040;-84
2022/07/16 04:36:19;;;;;;;5.13;1.92;;;17.80;62.30;;;;;;5000177;28;20050;-84
2022/07/16 04:38:44;;;;;;;2.92;2.08;;;17.80;62.00;;;;;;5003099;28;20045;-84
2022/07/16 04:41:10;;;;;;;3.28;1.83;;;17.90;62.30;;;;;;5002760;28;20041;-83
2022/07/16 04:43:36;;;;;;;4.32;1.80;;;18.00;62.10;;;;;;5000918;28;20034;-84
2022/07/16 04:46:01;;;;;;;2.38;2.08;;;18.10;62.10;;;;;;5016537;28;20042;-85
2022/07/16 04:48:27;;;;;;;4.90;2.10;;;18.20;61.70;;;;;;5017439;28;20037;-83
2022/07/16 04:50:53;;;;;;;5.03;2.25;;;18.30;61.50;;;;;;5019790;28;20030;-84
2022/07/16 04:53:19;;;;;;;2.03;1.83;;;18.30;61.20;;;;;;5019284;28;20053;-83
2022/07/16 04:55:44;;;;;;;1.92;1.75;;;18.30;61.40;;;;;;5019172;28;20029;-83
2022/07/16 04:58:10;;;;;;;1.77;1.23;;;18.30;61.50;;;;;;5002142;28;20036;-84
2022/07/16 05:00:36;;;;;;;3.47;1.92;;;18.30;61.60;;;;;;5019703;28;20025;-83
2022/07/16 05:03:02;;;;;;;2.70;2.25;;;18.30;61.40;;;;;;5002382;28;20030;-83
2022/07/16 05:05:32;;;;;;;3.85;1.95;;;18.30;61.10;;;;;;5011297;28;20042;-83
2022/07/16 05:07:59;;;;;;;5.57;2.72;;;18.30;60.70;;;;;;4984990;28;20034;-82
2022/07/16 05:10:25;;;;;;;3.88;1.83;;;18.30;60.30;;;;;;5006794;28;20046;-83
2022/07/16 05:12:52;;;;;;;4.00;1.88;;;18.40;59.90;;;;;;5013316;28;20030;-82
2022/07/16 05:15:18;;;;;;;2.83;1.70;;;18.50;60.10;;;;;;5006074;28;20046;-83
2022/07/16 05:17:44;;;;;;;2.95;2.25;;;19.70;60.10;;;;;;4986357;28;20065;-83
2022/07/16 05:20:10;;;;;;;3.05;1.63;;;22.70;53.90;;;;;;4993674;28;20026;-83
2022/07/16 05:22:36;;;;;;;4.18;1.98;;;25.00;49.70;;;;;;5013534;28;20037;-84
2022/07/16 05:25:02;;;;;;;5.25;2.22;;;26.30;45.70;;;;;;5002391;28;20104;-84
2022/07/16 05:27:28;;;;;;;1.88;1.70;;;27.30;44.60;;;;;;5004231;28;20022;-83
2022/07/16 05:29:54;;;;;;;1.70;1.50;;;28.90;43.10;;;;;;4994675;28;20557;-84
2022/07/16 05:32:20;;;;;;;1.60;1.50;;;30.00;41.60;;;;;;5018302;28;20624;-84
2022/07/16 05:34:45;;;;;;;1.48;1.38;;;31.00;40.70;;;;;;5019220;28;20077;-84
2022/07/16 05:37:11;;;;;;;3.90;1.83;;;31.90;38.80;;;;;;5009001;28;20104;-83
2022/07/16 05:39:36;;;;;;;2.53;1.90;;;32.40;37.70;;;;;;4982138;28;20026;-84
2022/07/16 05:42:02;;;;;;;1.73;1.42;;;32.90;36.70;;;;;;4999724;28;20106;-84
2022/07/16 05:44:28;;;;;;;2.00;1.50;;;33.10;36.60;;;;;;4998230;28;20022;-84
2022/07/16 05:46:54;;;;;;;3.33;2.03;;;33.20;35.80;;;;;;4982436;28;20031;-84
2022/07/16 05:49:20;;;;;;;3.45;2.00;;;33.20;35.80;;;;;;4999085;28;20090;-83
2022/07/16 05:51:46;;;;;;;1.85;1.75;;;33.50;35.60;;;;;;5000877;28;20034;-83
2022/07/16 05:54:12;;;;;;;2.08;1.60;;;33.60;35.20;;;;;;5024113;28;20439;-82
2022/07/16 05:56:38;;;;;;;2.03;1.75;;;33.60;35.70;;;;;;5026128;28;20021;-83
2022/07/16 05:59:03;;;;;;;1.88;1.70;;;33.90;35.10;;;;;;5006100;28;20022;-83
2022/07/16 06:01:30;;;;;;;2.92;1.70;;;34.10;34.60;;;;;;4998991;28;20022;-83
2022/07/16 06:03:58;;;;;;;2.38;1.50;;;33.80;34.30;;;;;;4980152;28;20026;-83
2022/07/16 06:06:24;;;;;;;2.55;1.73;;;33.50;34.70;;;;;;4999349;28;20029;-83
2022/07/16 06:08:50;;;;;;;4.50;2.20;;;33.80;34.40;;;;;;5017496;28;20467;-83
2022/07/16 06:11:15;;;;;;;3.17;1.60;;;33.90;33.80;;;;;;5018731;28;20018;-84
2022/07/16 06:13:41;;;;;;;2.15;1.95;;;33.90;34.20;;;;;;5018151;28;20542;-84
2022/07/16 06:16:07;;;;;;;5.38;1.88;;;34.10;33.90;;;;;;5001604;28;20087;-84
2022/07/16 06:18:34;;;;;;;3.30;1.73;;;33.90;34.20;;;;;;5012017;28;20491;-83
2022/07/16 06:21:00;;;;;;;2.13;1.67;;;33.80;34.70;;;;;;5006300;28;20022;-83
2022/07/16 06:23:25;;;;;;;1.63;1.52;;;34.00;34.90;;;;;;5010835;28;20474;-83
2022/07/16 06:25:51;;;;;;;1.95;1.85;;;34.40;34.20;;;;;;5011111;28;20181;-83
2022/07/16 06:28:17;;;;;;;1.98;1.80;;;34.80;34.30;;;;;;5013818;28;20026;-83
2022/07/16 06:30:43;;;;;;;2.88;1.90;;;35.10;33.90;;;;;;4999967;28;20101;-83
2022/07/16 06:33:10;;;;;;;1.55;1.45;;;35.40;32.90;;;;;;4999307;28;20161;-83
2022/07/16 06:35:35;;;;;;;1.92;1.70;;;35.20;32.90;;;;;;4984684;28;20472;-83
2022/07/16 06:38:04;;;;;;;3.55;1.92;;;34.60;33.50;;;;;;5003199;28;20030;-83
2022/07/16 06:40:31;;;;;;;3.03;1.70;;;35.00;33.30;;;;;;5021961;28;20037;-83
2022/07/16 06:42:56;;;;;;;2.00;1.73;;;35.40;32.10;;;;;;5021598;28;20549;-83
2022/07/16 06:45:23;;;;;;;1.10;1.10;;;35.10;32.50;;;;;;5020006;28;20068;-83
2022/07/16 06:47:48;;;;;;;2.33;1.83;;;35.10;33.00;;;;;;5002711;28;20099;-83
2022/07/16 06:50:14;;;;;;;3.80;1.80;;;35.40;32.10;;;;;;5002799;28;20511;-83
2022/07/16 06:52:40;;;;;;;1.98;1.63;;;35.20;32.90;;;;;;5006245;28;20503;-84
2022/07/16 06:55:07;;;;;;;1.90;1.73;;;35.50;32.60;;;;;;5021568;28;20026;-83
2022/07/16 06:57:33;;;;;;;2.78;1.98;;;35.50;32.70;;;;;;5023230;28;20081;-84
2022/07/16 06:59:59;;;;;;;2.80;1.38;;;35.80;32.50;;;;;;5024238;28;20037;-83
2022/07/16 07:02:25;;;;;;;2.25;1.98;;;36.00;32.30;;;;;;5006066;28;20041;-83
2022/07/16 07:04:56;;;;;;;1.63;1.52;;;36.00;32.20;;;;;;5004627;28;20029;-82
2022/07/16 07:07:22;;;;;;;1.70;1.60;;;36.00;32.10;;;;;;5010929;28;20030;-84
2022/07/16 07:09:50;;;;;;;2.65;1.90;;;36.20;32.10;;;;;;5003022;28;20037;-83
2022/07/16 07:12:16;;;;;;;2.40;1.90;;;36.40;31.40;;;;;;5003072;28;20058;-83
2022/07/16 07:14:42;;;;;;;4.18;2.03;;;35.70;31.70;;;;;;4993624;28;20026;-84
2022/07/16 07:17:07;;;;;;;1.92;1.40;;;35.10;32.10;;;;;;5020837;28;20070;-83
2022/07/16 07:19:33;;;;;;;2.53;1.90;;;33.70;32.90;;;;;;5018731;28;20039;-83
2022/07/16 07:21:59;;;;;;;4.90;1.90;;;31.60;34.10;;;;;;5000107;28;20125;-82
2022/07/16 07:24:33;;;;;;;5.18;1.83;;;29.00;36.20;;;;;;5081313;22;20085;-84
2022/07/16 07:27:24;;;;;;;3.90;2.00;;;26.70;38.80;;;;;;5036530;28;20018;-84
2022/07/16 07:29:54;;;;;;;4.50;1.90;;;25.00;41.70;;;;;;5032606;28;20017;-82
2022/07/16 07:32:23;;;;;;;4.80;1.98;;;23.70;44.40;;;;;;5033300;28;20032;-83
2022/07/16 07:34:52;;;;;;;3.75;1.50;;;23.00;45.60;;;;;;5036356;28;20038;-84
2022/07/16 07:37:20;;;;;;;2.38;1.92;;;22.60;46.50;;;;;;5039854;28;20029;-84
2022/07/16 07:39:46;;;;;;;3.95;2.15;;;22.30;47.30;;;;;;5039312;28;20026;-84
2022/07/16 07:42:12;;;;;;;3.70;2.35;;;22.20;47.90;;;;;;5038139;28;20010;-84
2022/07/16 07:44:38;;;;;;;4.05;1.77;;;22.10;48.60;;;;;;5038487;28;20098;-84
2022/07/16 07:47:09;;;;;;;6.70;1.75;;;22.10;49.00;;;;;;5038481;28;20018;-85
2022/07/16 07:49:43;;;;;;;4.32;2.28;;;22.00;48.70;;;;;;5021348;28;20030;-84
2022/07/16 07:52:09;;;;;;;3.28;1.50;;;22.00;49.10;;;;;;5034380;28;20042;-84
2022/07/16 07:54:36;;;;;;;7.70;2.67;;;22.00;49.20;;;;;;5022868;28;20101;-83
2022/07/16 07:57:04;;;;;;;7.70;2.35;;;22.10;48.90;;;;;;5057117;28;20006;-84
2022/07/16 07:59:30;;;;;;;5.72;2.22;;;22.10;49.10;;;;;;5058326;28;20013;-84
2022/07/16 08:01:56;;;;;;;4.57;1.70;;;22.10;49.20;;;;;;5057756;28;20089;-85
2022/07/16 08:04:21;;;;;;;2.95;2.08;;;22.20;48.60;;;;;;5057618;28;20073;-84
2022/07/16 08:06:50;;;;;;;7.63;1.98;;;22.20;48.60;;;;;;5057082;28;20022;-84
2022/07/16 08:09:15;;;;;;;3.20;2.08;;;22.30;48.70;;;;;;5053538;28;20029;-82
2022/07/16 08:12:05;;;;;;;;;;;;;;;;;;;;;
2022/07/16 08:17:57;;;;;;;4.90;2.42;;;22.40;48.70;;;;;;5004519;28;20056;-84
2022/07/16 08:27:01;;;;;;;4.05;2.10;;;22.40;48.30;;;;;;5034568;28;20047;-82
2022/07/16 08:29:27;;;;;;;4.25;1.90;;;22.30;48.60;;;;;;5005295;28;20041;-83
2022/07/16 08:43:11;;;;;;;4.30;2.30;;;22.80;48.00;;;;;;5059783;23;20045;-83
2022/07/16 08:45:41;;;;;;;3.55;2.15;;;22.80;47.40;;;;;;5013886;28;20022;-83
2022/07/16 08:48:07;;;;;;;4.05;2.13;;;22.90;47.40;;;;;;5025435;28;20006;-84
2022/07/16 08:50:38;;;;;;;5.43;2.78;;;23.00;47.20;;;;;;5037006;28;20053;-84
2022/07/16 08:53:07;;;;;;;4.47;2.37;;;23.20;46.90;;;;;;5036790;28;20030;-85
2022/07/16 08:55:36;;;;;;;4.15;2.67;;;23.20;46.90;;;;;;5028457;28;20552;-83
2022/07/16 08:58:06;;;;;;;3.50;2.30;;;23.20;46.90;;;;;;5009604;28;20021;-84
2022/07/16 09:00:39;;;;;;;4.55;2.47;;;23.20;46.40;;;;;;4988105;28;20038;-83
2022/07/16 09:03:13;;;;;;;3.63;2.53;;;23.40;45.70;;;;;;5004655;28;20363;-83
2022/07/16 09:05:44;;;;;;;6.70;2.58;;;23.40;45.20;;;;;;4986915;28;20041;-84
2022/07/16 09:08:46;;;;;;;4.05;2.88;;;23.40;45.50;;;;;;5018065;28;20086;-84
2022/07/16 09:11:19;;;;;;;;;;;23.50;45.40;;;;;;4972881;28;20034;-81
2022/07/16 09:14:09;;;;;;;3.78;2.10;;;23.60;45.70;;;;;;4999798;28;19967;-83
2022/07/16 09:16:41;;;;;;;18.05;2.90;;;23.70;45.00;;;;;;5004901;28;20022;-84
2022/07/16 09:19:29;;;;;;;3.33;2.38;;;23.70;45.00;;;;;;5004576;28;20026;-82
2022/07/16 09:22:13;;;;;;;3.55;2.33;;;23.80;44.90;;;;;;5022716;28;20030;-84
2022/07/16 09:24:52;;;;;;;3.60;2.67;;;23.80;45.50;;;;;;5023705;28;20390;-84
2022/07/16 09:27:23;;;;;;;3.78;1.77;;;24.00;44.60;;;;;;5023010;28;20022;-84
2022/07/16 09:33:29;;;;;;;5.50;2.33;;;24.30;42.30;;;;;;5021478;28;20073;-83
2022/07/16 09:36:27;;;;;;;3.35;2.13;;;24.30;41.60;;;;;;5003645;28;20026;-83
2022/07/16 09:38:53;;;;;;;3.30;2.50;;;24.20;42.60;;;;;;4981285;28;20466;-83
2022/07/16 09:41:22;;;;;;;2.47;2.28;;;24.30;42.60;;;;;;5000044;28;20037;-83
2022/07/16 09:43:48;;;;;;;5.57;2.58;;;24.30;42.00;;;;;;4997340;28;20032;-83
2022/07/16 09:46:23;;;;;;;4.88;2.40;;;24.50;42.50;;;;;;4999094;28;20022;-84
2022/07/16 09:48:52;;;;;;;3.28;1.95;;;24.50;42.30;;;;;;5001809;28;20105;-83
2022/07/16 09:51:28;;;;;;;6.43;2.53;;;24.50;42.90;;;;;;5002684;28;20121;-84
2022/07/16 09:56:38;;;;;;;6.68;2.63;;;24.90;42.10;;;;;;5027314;28;20076;-83
2022/07/16 09:59:05;;;;;;;4.53;2.92;;;25.10;41.50;;;;;;5028492;28;20025;-83
2022/07/16 10:01:31;;;;;;;7.22;2.40;;;25.10;41.90;;;;;;5009958;28;20025;-82
2022/07/16 10:04:09;;;;;;;3.08;2.58;;;25.00;42.10;;;;;;5009912;28;20093;-84
2022/07/16 10:06:47;;;;;;;6.38;1.90;;;25.10;41.70;;;;;;5009529;28;20034;-83
2022/07/16 10:09:32;;;;;;;4.72;2.22;;;25.30;41.90;;;;;;5007815;28;20089;-84
2022/07/16 10:12:08;;;;;;;4.75;3.15;;;25.40;41.60;;;;;;4989509;28;20049;-83
2022/07/16 10:14:41;;;;;;;2.95;2.30;;;25.60;41.20;;;;;;5009942;28;20029;-83
2022/07/16 10:17:16;;;;;;;2.30;2.00;;;25.80;41.60;;;;;;5010707;28;20018;-83
2022/07/16 10:19:46;;;;;;;5.63;2.42;;;25.90;40.80;;;;;;5009835;28;20029;-83
2022/07/16 10:22:16;;;;;;;2.45;1.75;;;25.90;39.10;;;;;;5009289;28;20074;-84
2022/07/16 10:24:54;;;;;;;6.45;2.45;;;25.70;39.80;;;;;;5008521;28;20014;-83
2022/07/16 10:27:38;;;;;;;8.05;2.97;;;25.60;39.90;;;;;;5012601;28;20037;-82
2022/07/16 10:30:29;;;;;;;4.22;2.28;;;25.70;40.60;;;;;;5008497;28;20022;-83
2022/07/16 10:33:10;;;;;;;6.80;2.72;;;25.70;40.30;;;;;;5010268;28;20093;-84
2022/07/16 10:36:06;;;;;;;4.50;2.88;;;25.70;41.00;;;;;;5009960;28;20399;-83
2022/07/16 10:38:34;;;;;;;5.05;2.35;;;25.70;40.70;;;;;;4998442;28;20034;-83
2022/07/16 10:41:19;;;;;;;3.63;2.10;;;25.80;40.80;;;;;;5009601;28;20030;-84
2022/07/16 10:44:13;;;;;;;6.50;2.38;;;26.00;39.90;;;;;;5011656;28;20508;-84
2022/07/16 10:46:58;;;;;;;3.42;2.50;;;26.10;40.30;;;;;;5009022;28;20038;-83
2022/07/16 10:49:29;;;;;;;4.45;3.05;;;26.10;40.00;;;;;;5008931;28;20426;-83
2022/07/16 10:52:18;;;;;;;4.20;1.90;;;26.30;39.30;;;;;;5007963;28;20030;-83
2022/07/16 10:54:58;;;;;;;3.88;1.95;;;26.20;39.40;;;;;;5010104;28;20034;-83
2022/07/16 10:57:43;;;;;;;5.47;2.00;;;26.30;39.40;;;;;;5016125;28;20026;-83
2022/07/16 11:00:14;;;;;;;4.95;2.10;;;26.50;38.70;;;;;;5010137;28;20026;-84
2022/07/16 11:02:41;;;;;;;;;;;26.50;37.90;;;;;;5007278;28;20061;-84
2022/07/16 11:05:08;;;;;;;7.88;2.08;;;26.50;39.50;;;;;;5007143;28;19910;-84
2022/07/16 11:07:38;;;;;;;4.28;1.98;;;26.50;38.60;;;;;;5004194;28;20475;-83
2022/07/16 11:10:08;;;;;;;4.50;2.13;;;26.40;38.30;;;;;;5006243;28;20045;-82
2022/07/16 11:12:40;;;;;;;3.03;2.00;;;26.40;38.50;;;;;;5006918;28;20085;-83
2022/07/16 11:15:06;;;;;;;6.60;2.63;;;26.50;38.20;;;;;;5024821;28;20037;-85
2022/07/16 11:17:33;;;;;;;6.35;2.20;;;26.70;37.70;;;;;;5007470;28;20085;-84
2022/07/16 11:20:03;;;;;;;3.33;2.53;;;26.80;38.10;;;;;;5006553;28;20049;-84
2022/07/16 11:22:31;;;;;;;3.70;2.15;;;26.90;38.00;;;;;;5035625;28;20033;-85
2022/07/16 11:25:03;;;;;;;2.22;1.88;;;27.10;37.60;;;;;;5021822;28;20112;-84
2022/07/16 11:27:32;;;;;;;;;;;27.10;37.60;;;;;;5037057;28;20041;-83
2022/07/16 11:30:09;;;;;;;6.32;2.22;;;27.20;37.60;;;;;;5020313;28;19917;-83
2022/07/16 11:32:50;;;;;;;4.75;2.50;;;27.40;37.50;;;;;;5008611;28;20038;-82
2022/07/16 11:35:16;;;;;;;5.88;1.98;;;27.40;37.10;;;;;;4998874;28;20026;-84
2022/07/16 11:37:56;;;;;;;2.38;2.17;;;27.30;36.60;;;;;;4993124;28;20054;-83
2022/07/16 11:40:50;;;;;;;4.22;2.03;;;27.20;37.10;;;;;;4994159;28;20028;-82
2022/07/16 11:43:16;;;;;;;3.35;2.08;;;27.20;37.50;;;;;;5006328;28;20013;-83
2022/07/16 11:45:43;;;;;;;3.53;1.85;;;27.30;37.00;;;;;;5016987;28;20025;-83
2022/07/16 11:48:17;;;;;;;4.85;2.05;;;27.30;36.10;;;;;;5010882;28;20474;-84
2022/07/16 11:50:47;;;;;;;2.20;1.98;;;27.40;37.20;;;;;;5008704;28;20073;-84
2022/07/16 11:53:14;;;;;;;2.72;2.00;;;27.50;36.90;;;;;;5005178;28;20030;-84
2022/07/16 11:55:44;;;;;;;7.55;2.05;;;27.60;36.80;;;;;;5004822;28;20042;-83
2022/07/16 11:58:15;;;;;;;3.03;1.98;;;27.50;36.90;;;;;;5024765;28;20032;-83
2022/07/16 12:00:48;;;;;;;2.45;2.20;;;27.50;36.10;;;;;;5018218;28;20022;-83
2022/07/16 12:03:14;;;;;;;2.35;2.05;;;27.50;36.70;;;;;;5025226;28;20109;-83
2022/07/16 12:05:40;;;;;;;3.90;2.22;;;27.60;36.90;;;;;;5022350;28;20034;-83
2022/07/16 12:08:08;;;;;;;6.70;3.28;;;27.80;36.50;;;;;;5024798;28;20395;-82
2022/07/16 12:10:34;;;;;;;2.40;2.20;;;27.80;36.70;;;;;;5025259;28;20363;-83
2022/07/16 12:13:09;;;;;;;2.45;2.03;;;27.70;36.80;;;;;;5024405;28;20034;-83
2022/07/16 12:15:59;;;;;;;7.40;2.70;;;27.90;36.70;;;;;;5023659;28;20125;-83
2022/07/16 12:18:25;;;;;;;7.32;2.65;;;27.80;36.50;;;;;;5023328;28;20029;-82
2022/07/16 12:20:51;;;;;;;4.05;2.47;;;27.90;36.40;;;;;;5006486;28;20017;-83
2022/07/16 12:23:37;;;;;;;3.30;2.75;;;27.80;36.90;;;;;;5005865;28;20506;-83
2022/07/16 12:26:05;;;;;;;2.70;2.35;;;27.80;36.90;;;;;;5024806;28;20448;-84
2022/07/16 12:28:33;;;;;;;4.20;2.53;;;27.80;37.40;;;;;;5008005;28;20056;-83
2022/07/16 12:31:05;;;;;;;6.85;1.90;;;27.80;37.30;;;;;;5006174;28;20030;-83
2022/07/16 12:33:31;;;;;;;4.82;2.00;;;27.60;36.50;;;;;;5024144;28;20069;-83
2022/07/16 12:36:09;;;;;;;2.33;2.00;;;27.40;37.20;;;;;;5006957;28;20022;-81
2022/07/16 12:38:54;;;;;;;2.90;2.20;;;27.30;37.10;;;;;;5024972;28;20022;-82
2022/07/16 12:41:28;;;;;;;3.17;2.13;;;27.50;37.00;;;;;;5025423;28;20053;-83
2022/07/16 12:44:00;;;;;;;4.70;2.33;;;27.80;37.50;;;;;;5004821;28;20030;-84
2022/07/16 12:46:27;;;;;;;;;;;27.90;36.40;;;;;;5021174;28;20104;-84
2022/07/16 12:49:03;;;;;;;3.55;2.50;;;27.90;36.60;;;;;;5022152;28;20262;-83
2022/07/16 12:51:30;;;;;;;3.33;2.22;;;27.80;36.70;;;;;;5024307;28;20074;-83
2022/07/16 12:53:58;;;;;;;2.88;2.05;;;27.70;37.00;;;;;;5024977;28;20026;-84
2022/07/16 12:59:10;;;;;;;4.20;2.50;;;27.80;36.80;;;;;;5025298;28;20085;-82
2022/07/16 13:01:58;;;;;;;4.85;2.00;;;27.80;36.90;;;;;;5022579;28;20026;-84
2022/07/16 13:04:27;;;;;;;4.63;2.30;;;28.00;36.40;;;;;;5023675;28;20236;-82
2022/07/16 13:06:52;;;;;;;2.42;2.17;;;27.90;36.60;;;;;;5006221;28;20030;-82
2022/07/16 13:09:22;;;;;;;2.38;2.17;;;27.90;36.80;;;;;;5023473;28;20025;-82
2022/07/16 13:11:49;;;;;;;7.10;2.22;;;28.10;36.80;;;;;;5004048;28;20029;-83
2022/07/16 13:14:14;;;;;;;3.38;2.20;;;28.20;36.10;;;;;;5023537;28;20088;-84
2022/07/16 13:16:41;;;;;;;7.22;2.60;;;28.10;36.40;;;;;;5022818;28;20033;-82
2022/07/16 13:19:07;;;;;;;3.53;2.70;;;28.10;36.20;;;;;;5020206;28;20029;-84
2022/07/16 13:21:34;;;;;;;5.13;2.17;;;28.00;36.00;;;;;;5021698;28;20036;-83
2022/07/16 13:24:00;;;;;;;8.32;2.22;;;28.00;36.60;;;;;;5031970;23;20025;-83
2022/07/16 13:26:31;;;;;;;6.47;2.15;;;28.00;36.20;;;;;;4991307;28;20149;-82
2022/07/16 13:28:57;;;;;;;6.22;2.30;;;28.00;36.20;;;;;;4986041;28;20022;-84
2022/07/16 13:31:24;;;;;;;6.10;2.75;;;28.20;35.70;;;;;;4986136;28;20050;-82